Time;durP1;ratioP1;P1;durP2;ratioP2;P2;SDS_P1;SDS_P2;PMS_P1;PMS_P2;Temp;Humidity;BMP_temperature;BMP_pressure;BME280_temperature;BME280_humidity;BME280_pressure;Samples;Min_cycle;Max_cycle;Signal;HPM_P1;HPM_P2
2022/05/01 00:01:51;;;;;;;21.27;9.50;;;8.30;99.90;;;;;;5056195;28;20131;-74
2022/05/01 00:04:17;;;;;;;23.15;11.18;;;8.30;99.90;;;;;;5056263;28;20080;-73
2022/05/01 00:06:42;;;;;;;24.38;10.05;;;8.30;99.90;;;;;;5055970;28;20045;-75
2022/05/01 00:09:08;;;;;;;24.25;10.60;;;8.20;99.90;;;;;;5055115;28;20044;-75
2022/05/01 00:11:34;;;;;;;19.70;10.13;;;8.30;99.90;;;;;;5055553;28;20044;-76
2022/05/01 00:14:00;;;;;;;25.83;10.82;;;8.30;99.90;;;;;;5055776;28;20092;-75
2022/05/01 00:16:26;;;;;;;24.75;11.57;;;8.20;99.90;;;;;;5054172;28;20052;-75
2022/05/01 00:18:52;;;;;;;25.88;10.95;;;8.20;99.90;;;;;;5054746;28;20110;-76
2022/05/01 00:21:18;;;;;;;26.63;11.65;;;8.20;99.90;;;;;;5055569;28;20053;-75
2022/05/01 00:23:44;;;;;;;29.77;11.20;;;8.10;99.90;;;;;;5038242;28;20048;-74
2022/05/01 00:26:11;;;;;;;22.70;10.67;;;8.40;99.90;;;;;;5055757;28;20120;-75
2022/05/01 00:28:38;;;;;;;23.60;10.60;;;8.20;99.90;;;;;;5056155;28;20053;-76
2022/05/01 00:31:05;;;;;;;23.45;11.38;;;8.40;99.90;;;;;;5055599;28;20040;-73
2022/05/01 00:36:25;;;;;;;28.48;11.65;;;8.30;99.90;;;;;;5055808;28;20060;-76
2022/05/01 00:39:02;;;;;;;26.33;12.00;;;8.50;99.90;;;;;;5054609;28;20048;-76
2022/05/01 00:41:36;;;;;;;27.38;11.18;;;8.30;99.90;;;;;;5038096;28;20499;-78
2022/05/01 00:44:08;;;;;;;27.60;11.85;;;8.30;99.90;;;;;;5054518;28;20146;-76
2022/05/01 00:46:54;;;;;;;32.13;12.23;;;8.10;99.90;;;;;;5055177;28;20055;-76
2022/05/01 00:49:22;;;;;;;27.40;11.63;;;8.10;99.90;;;;;;5054984;28;20060;-76
2022/05/01 00:51:52;;;;;;;25.73;11.90;;;8.10;99.90;;;;;;5054079;28;20134;-76
2022/05/01 00:54:21;;;;;;;26.25;11.43;;;8.10;99.90;;;;;;5055717;28;20080;-75
2022/05/01 00:56:49;;;;;;;23.55;11.80;;;8.10;99.90;;;;;;5054700;28;20056;-74
2022/05/01 00:59:15;;;;;;;27.48;12.23;;;8.10;99.90;;;;;;5053892;28;20131;-75
2022/05/01 01:01:43;;;;;;;26.75;12.43;;;8.00;99.90;;;;;;5055854;28;20465;-76
2022/05/01 01:04:10;;;;;;;24.58;12.23;;;8.00;99.90;;;;;;5053795;28;20134;-74
2022/05/01 01:06:39;;;;;;;29.95;13.15;;;8.00;99.90;;;;;;5037479;28;20041;-76
2022/05/01 01:09:06;;;;;;;25.92;12.18;;;8.00;99.90;;;;;;5054771;28;20516;-75
2022/05/01 01:11:32;;;;;;;24.88;11.60;;;8.00;99.90;;;;;;5054163;28;20139;-75
2022/05/01 01:13:59;;;;;;;25.02;11.52;;;8.00;99.90;;;;;;5053602;28;20149;-75
2022/05/01 01:16:25;;;;;;;24.88;11.88;;;8.00;99.90;;;;;;5054822;28;20059;-74
2022/05/01 01:18:52;;;;;;;27.90;11.90;;;8.10;99.90;;;;;;5054455;28;20488;-75
2022/05/01 01:21:18;;;;;;;26.52;11.80;;;8.00;99.90;;;;;;5053050;28;20080;-76
2022/05/01 01:23:44;;;;;;;26.87;12.33;;;8.00;99.90;;;;;;5054234;28;20547;-74
2022/05/01 01:26:12;;;;;;;24.98;11.98;;;8.00;99.90;;;;;;5054376;28;20774;-75
2022/05/01 01:28:40;;;;;;;29.85;11.82;;;8.00;99.90;;;;;;5055051;28;20487;-75
2022/05/01 01:33:59;;;;;;;28.48;12.25;;;7.90;99.90;;;;;;5054724;28;20342;-75
2022/05/01 01:36:28;;;;;;;27.60;12.30;;;7.90;99.90;;;;;;5054132;28;20144;-75
2022/05/01 01:38:54;;;;;;;24.95;12.20;;;7.80;99.90;;;;;;5053087;28;20124;-75
2022/05/01 01:41:22;;;;;;;26.25;11.75;;;7.80;99.90;;;;;;5053976;28;20104;-75
2022/05/01 01:43:49;;;;;;;27.25;12.07;;;7.90;99.90;;;;;;5052897;28;20092;-75
2022/05/01 01:46:15;;;;;;;26.48;11.85;;;7.90;99.90;;;;;;5054103;28;20053;-74
2022/05/01 01:48:41;;;;;;;27.77;12.40;;;7.90;99.90;;;;;;5053952;28;20087;-75
2022/05/01 01:51:07;;;;;;;30.83;12.98;;;;;;;;;;5053533;28;20080;-74
2022/05/01 01:53:36;;;;;;;26.33;12.43;;;7.90;99.90;;;;;;5054362;28;20091;-74
2022/05/01 01:56:03;;;;;;;25.05;12.50;;;7.90;99.90;;;;;;5053181;28;20045;-74
2022/05/01 01:58:30;;;;;;;30.15;12.73;;;7.90;99.90;;;;;;5053449;28;20064;-74
2022/05/01 02:00:56;;;;;;;;;;;7.90;99.90;;;;;;5069570;28;20044;-73
2022/05/01 02:03:22;;;;;;;32.40;11.30;;;7.90;99.90;;;;;;5068958;28;20051;-72
2022/05/01 02:05:48;;;;;;;27.50;12.70;;;7.80;99.90;;;;;;5035897;28;20102;-72
2022/05/01 02:08:16;;;;;;;25.30;11.60;;;7.90;99.90;;;;;;5069465;28;20136;-72
2022/05/01 02:10:43;;;;;;;28.52;11.68;;;7.90;99.90;;;;;;5052425;28;20508;-74
2022/05/01 02:13:10;;;;;;;28.75;12.25;;;7.90;99.90;;;;;;5053131;28;20080;-71
2022/05/01 02:15:37;;;;;;;28.08;11.95;;;8.00;99.90;;;;;;5053873;28;20461;-71
2022/05/01 02:18:04;;;;;;;27.40;12.38;;;8.00;99.90;;;;;;5053543;28;20045;-72
2022/05/01 02:23:17;;;;;;;26.50;11.75;;;8.10;99.90;;;;;;5053810;28;20114;-72
2022/05/01 02:25:43;;;;;;;26.23;12.23;;;8.00;99.90;;;;;;5052195;28;20049;-73
2022/05/01 02:28:10;;;;;;;28.25;12.73;;;8.00;99.90;;;;;;5052364;28;20037;-72
2022/05/01 02:30:37;;;;;;;27.70;11.88;;;8.10;99.90;;;;;;5053104;28;20191;-73
2022/05/01 02:33:06;;;;;;;28.42;12.70;;;8.10;99.90;;;;;;5052108;28;20041;-72
2022/05/01 02:35:32;;;;;;;31.67;12.80;;;8.00;99.90;;;;;;5052417;28;20091;-73
2022/05/01 02:37:59;;;;;;;29.63;12.25;;;7.90;99.90;;;;;;5068786;28;20118;-73
2022/05/01 02:40:25;;;;;;;28.63;12.98;;;7.80;99.90;;;;;;5035954;28;20057;-72
2022/05/01 02:42:52;;;;;;;27.90;12.83;;;7.80;99.90;;;;;;5052233;28;20545;-71
2022/05/01 02:45:17;;;;;;;26.52;12.30;;;7.90;99.90;;;;;;5052474;28;20057;-73
2022/05/01 02:47:44;;;;;;;31.38;12.23;;;7.90;99.90;;;;;;5054568;28;20045;-74
2022/05/01 02:50:10;;;;;;;26.75;12.00;;;7.90;99.90;;;;;;5055587;28;20087;-72
2022/05/01 02:52:36;;;;;;;29.27;13.23;;;8.00;99.90;;;;;;5053842;28;20041;-72
2022/05/01 02:55:02;;;;;;;30.50;12.75;;;8.00;99.90;;;;;;5056041;28;20295;-72
2022/05/01 02:57:28;;;;;;;29.98;12.80;;;8.00;99.90;;;;;;5054635;28;20129;-73
2022/05/01 02:59:53;;;;;;;25.70;11.98;;;8.00;99.90;;;;;;5055020;28;20113;-72
2022/05/01 03:02:19;;;;;;;27.90;12.60;;;7.90;99.90;;;;;;5053968;28;20443;-72
2022/05/01 03:04:46;;;;;;;32.13;12.93;;;7.80;99.90;;;;;;5054682;28;20084;-72
2022/05/01 03:07:15;;;;;;;28.85;13.30;;;7.80;99.90;;;;;;5036892;28;20041;-71
2022/05/01 03:09:41;;;;;;;27.65;11.80;;;7.90;99.90;;;;;;5055368;28;20037;-72
2022/05/01 03:12:08;;;;;;;26.02;11.75;;;7.90;99.90;;;;;;5037919;28;20045;-72
2022/05/01 03:14:34;;;;;;;31.23;13.32;;;7.90;99.90;;;;;;5037224;28;20057;-72
2022/05/01 03:17:00;;;;;;;31.92;13.32;;;7.80;99.90;;;;;;5054467;28;20067;-74
2022/05/01 03:22:18;;;;;;;35.20;13.80;;;7.80;99.90;;;;;;5055463;28;20434;-72
2022/05/01 03:24:44;;;;;;;28.55;12.88;;;7.70;99.90;;;;;;5037370;28;20037;-72
2022/05/01 03:27:10;;;;;;;29.13;12.38;;;7.70;99.90;;;;;;5036414;28;20144;-72
2022/05/01 03:29:37;;;;;;;31.02;13.32;;;7.70;99.90;;;;;;5053641;28;20147;-73
2022/05/01 03:32:07;;;;;;;30.83;12.48;;;7.70;99.90;;;;;;5051425;28;20091;-72
2022/05/01 03:34:37;;;;;;;33.03;12.50;;;7.70;99.90;;;;;;5035374;28;20080;-72
2022/05/01 03:37:06;;;;;;;32.25;12.65;;;7.70;99.90;;;;;;5053460;28;20097;-72
2022/05/01 03:39:35;;;;;;;30.08;13.32;;;7.70;99.90;;;;;;5052276;28;20051;-72
2022/05/01 03:42:02;;;;;;;33.92;13.45;;;7.80;99.90;;;;;;5051396;28;20049;-72
2022/05/01 03:44:28;;;;;;;31.20;14.55;;;7.80;99.90;;;;;;5051006;28;20091;-72
2022/05/01 03:46:54;;;;;;;32.70;13.80;;;7.70;99.90;;;;;;5052222;28;20157;-72
2022/05/01 03:49:20;;;;;;;31.98;15.07;;;7.70;99.90;;;;;;5052324;28;20051;-72
2022/05/01 03:51:46;;;;;;;37.45;14.43;;;7.60;99.90;;;;;;5052030;28;20131;-73
2022/05/01 03:54:15;;;;;;;30.77;13.57;;;7.60;99.90;;;;;;5052802;28;20053;-71
2022/05/01 03:56:41;;;;;;;33.75;14.63;;;7.60;99.90;;;;;;5052046;28;20098;-72
2022/05/01 03:59:07;;;;;;;33.45;14.82;;;7.70;99.90;;;;;;5050808;28;20439;-73
2022/05/01 04:01:33;;;;;;;31.58;14.52;;;7.60;99.90;;;;;;5050725;28;20037;-73
2022/05/01 04:03:59;;;;;;;29.50;13.85;;;7.60;99.90;;;;;;5051677;28;20458;-73
2022/05/01 04:06:24;;;;;;;30.15;14.18;;;7.50;99.90;;;;;;5034699;28;20059;-73
2022/05/01 04:08:51;;;;;;;30.38;13.77;;;7.60;99.90;;;;;;5050621;28;20056;-71
2022/05/01 04:11:18;;;;;;;28.60;13.77;;;7.60;99.90;;;;;;5052037;28;20052;-72
2022/05/01 04:13:43;;;;;;;30.05;13.63;;;7.60;99.90;;;;;;5051814;28;20136;-72
2022/05/01 04:16:09;;;;;;;33.03;15.18;;;7.60;99.90;;;;;;5050711;28;20446;-72
2022/05/01 04:18:35;;;;;;;32.03;14.40;;;7.50;99.90;;;;;;5050475;28;20045;-72
2022/05/01 04:21:01;;;;;;;41.25;15.65;;;7.50;99.90;;;;;;5052520;28;20052;-73
2022/05/01 04:23:27;;;;;;;37.67;15.23;;;7.50;99.90;;;;;;5050791;28;20162;-72
2022/05/01 04:25:54;;;;;;;31.33;16.60;;;7.60;99.90;;;;;;5051695;28;20125;-72
2022/05/01 04:28:20;;;;;;;30.58;13.65;;;7.50;99.90;;;;;;5051498;28;20132;-72
2022/05/01 04:30:50;;;;;;;35.80;15.25;;;7.70;99.90;;;;;;5034340;28;20465;-73
2022/05/01 04:33:16;;;;;;;32.28;14.40;;;7.70;99.90;;;;;;5055089;28;20127;-73
2022/05/01 04:35:50;;;;;;;34.28;15.07;;;7.70;99.90;;;;;;5054351;28;20052;-73
2022/05/01 04:38:24;;;;;;;36.30;14.63;;;7.60;99.90;;;;;;5037621;28;20394;-72
2022/05/01 04:40:55;;;;;;;34.05;14.77;;;7.70;99.90;;;;;;5055618;28;20049;-72
2022/05/01 04:43:26;;;;;;;31.73;14.75;;;7.90;99.90;;;;;;5055742;28;20045;-73
2022/05/01 04:45:54;;;;;;;31.00;14.55;;;7.70;99.90;;;;;;5055506;28;20053;-73
2022/05/01 04:48:22;;;;;;;32.25;14.30;;;7.70;99.90;;;;;;5053990;28;20123;-72
2022/05/01 04:50:48;;;;;;;31.50;14.15;;;7.80;99.90;;;;;;5037396;28;20399;-71
2022/05/01 04:53:16;;;;;;;35.30;15.20;;;7.80;99.90;;;;;;5055186;28;20102;-73
2022/05/01 04:55:45;;;;;;;35.70;15.93;;;7.70;99.90;;;;;;5037480;28;20127;-73
2022/05/01 04:58:12;;;;;;;33.30;15.48;;;7.70;99.90;;;;;;5055002;28;20076;-72
2022/05/01 05:00:38;;;;;;;37.92;16.65;;;7.70;99.90;;;;;;5053356;28;20575;-73
2022/05/01 05:03:04;;;;;;;36.88;16.17;;;7.70;99.90;;;;;;5054634;28;20135;-73
2022/05/01 05:05:31;;;;;;;34.77;16.20;;;7.70;99.90;;;;;;5055812;28;20049;-74
2022/05/01 05:10:44;;;;;;;35.00;15.48;;;7.90;99.90;;;;;;5054338;28;20132;-72
2022/05/01 05:13:11;;;;;;;38.50;15.60;;;7.90;99.90;;;;;;5053148;28;20057;-74
2022/05/01 05:15:36;;;;;;;35.30;15.23;;;7.90;99.90;;;;;;5055283;28;20049;-72
2022/05/01 05:18:02;;;;;;;39.40;15.70;;;8.00;99.90;;;;;;5037499;28;20076;-74
2022/05/01 05:20:28;;;;;;;35.50;14.88;;;8.00;99.90;;;;;;5054685;28;20140;-73
2022/05/01 05:22:54;;;;;;;35.53;15.32;;;8.10;99.90;;;;;;5036667;28;20091;-73
2022/05/01 05:25:20;;;;;;;31.50;15.00;;;8.10;99.90;;;;;;5053967;28;20049;-73
2022/05/01 05:27:47;;;;;;;36.03;15.20;;;8.20;99.90;;;;;;5036897;28;20102;-72
2022/05/01 05:30:13;;;;;;;;;;;8.20;99.90;;;;;;5054372;28;20280;-71
2022/05/01 05:32:39;;;;;;;38.08;14.43;;;8.20;99.90;;;;;;5069981;28;19925;-72
2022/05/01 05:35:05;;;;;;;31.95;14.63;;;8.30;99.90;;;;;;5054229;28;20045;-72
2022/05/01 05:37:31;;;;;;;30.70;14.35;;;8.30;99.90;;;;;;5052911;28;20126;-72
2022/05/01 05:40:00;;;;;;;37.27;15.83;;;;;;;;;;5036371;28;20346;-72
2022/05/01 05:42:26;;;;;;;31.10;14.75;;;8.40;99.90;;;;;;5053690;28;20053;-73
2022/05/01 05:44:52;;;;;;;34.03;14.30;;;8.40;99.90;;;;;;5053115;28;20045;-74
2022/05/01 05:47:17;;;;;;;32.60;14.88;;;8.50;99.90;;;;;;5053892;28;20051;-73
2022/05/01 05:49:43;;;;;;;35.50;14.98;;;8.50;99.90;;;;;;5052891;28;20103;-72
2022/05/01 05:52:09;;;;;;;32.22;14.32;;;8.60;99.90;;;;;;5054198;28;20084;-72
2022/05/01 05:54:35;;;;;;;28.90;13.38;;;8.60;99.90;;;;;;5052425;28;20049;-74
2022/05/01 05:57:01;;;;;;;29.95;13.75;;;8.70;99.90;;;;;;5037099;28;20053;-72
2022/05/01 05:59:27;;;;;;;30.00;13.48;;;8.80;99.90;;;;;;5053512;28;20041;-73
2022/05/01 06:01:53;;;;;;;30.05;13.20;;;8.80;99.90;;;;;;5054802;28;20065;-73
2022/05/01 06:04:18;;;;;;;28.98;13.85;;;8.80;99.90;;;;;;5052387;28;20080;-73
2022/05/01 06:06:44;;;;;;;29.20;12.50;;;8.90;99.90;;;;;;5035795;28;20044;-72
2022/05/01 06:09:10;;;;;;;33.05;12.90;;;9.00;99.90;;;;;;5053832;28;20155;-72
2022/05/01 06:11:36;;;;;;;26.88;12.35;;;9.10;99.90;;;;;;5052140;28;20052;-72
2022/05/01 06:14:02;;;;;;;30.60;11.57;;;9.10;99.90;;;;;;5053450;28;20076;-73
2022/05/01 06:16:29;;;;;;;30.00;13.18;;;9.20;99.90;;;;;;5035940;28;20064;-74
2022/05/01 06:18:58;;;;;;;27.90;12.63;;;9.10;99.90;;;;;;5053176;28;20052;-73
2022/05/01 06:21:24;;;;;;;27.60;12.43;;;9.00;99.90;;;;;;5052443;28;20056;-73
2022/05/01 06:23:49;;;;;;;27.48;12.18;;;9.20;99.90;;;;;;5069121;28;20052;-74
2022/05/01 06:26:15;;;;;;;27.58;11.98;;;9.20;99.90;;;;;;5052227;28;20041;-74
2022/05/01 06:28:41;;;;;;;30.25;11.95;;;9.30;99.90;;;;;;5052271;28;20048;-72
2022/05/01 06:31:07;;;;;;;27.42;10.35;;;9.50;99.90;;;;;;5052454;28;20052;-73
2022/05/01 06:33:35;;;;;;;25.23;10.88;;;9.50;99.90;;;;;;5052659;28;20052;-74
2022/05/01 06:36:01;;;;;;;23.67;11.82;;;9.40;99.90;;;;;;5052563;28;20045;-72
2022/05/01 06:38:28;;;;;;;25.35;11.13;;;9.30;99.90;;;;;;5053462;28;20048;-73
2022/05/01 06:40:54;;;;;;;23.05;11.27;;;9.50;99.90;;;;;;5052561;28;20150;-73
2022/05/01 06:43:20;;;;;;;25.65;12.55;;;9.50;99.90;;;;;;5053050;28;20049;-74
2022/05/01 06:45:47;;;;;;;29.30;12.13;;;9.70;99.90;;;;;;5052929;28;20086;-74
2022/05/01 06:48:13;;;;;;;26.33;12.95;;;9.80;99.90;;;;;;5052551;28;20044;-73
2022/05/01 06:50:39;;;;;;;25.00;11.95;;;9.60;99.90;;;;;;5053496;28;20127;-74
2022/05/01 06:53:06;;;;;;;25.70;11.48;;;9.40;99.90;;;;;;5035621;28;20060;-75
2022/05/01 06:55:34;;;;;;;24.55;10.90;;;9.50;99.90;;;;;;5051720;28;20068;-72
2022/05/01 06:57:59;;;;;;;;;;;9.80;99.90;;;;;;5053841;28;20084;-74
2022/05/01 07:00:25;;;;;;;24.37;10.70;;;9.80;99.90;;;;;;5052666;28;19952;-75
2022/05/01 07:02:53;;;;;;;27.13;11.65;;;9.80;99.90;;;;;;5052672;28;20047;-75
2022/05/01 07:05:21;;;;;;;22.23;10.63;;;10.00;99.90;;;;;;5053560;28;20052;-74
2022/05/01 07:07:48;;;;;;;24.23;11.13;;;10.10;99.90;;;;;;5052943;28;20071;-75
2022/05/01 07:10:14;;;;;;;24.65;11.23;;;9.80;99.90;;;;;;5035845;28;20053;-73
2022/05/01 07:12:40;;;;;;;23.10;9.85;;;9.90;99.90;;;;;;5052021;28;20045;-74
2022/05/01 07:15:07;;;;;;;20.83;9.15;;;10.10;99.90;;;;;;5052017;28;20110;-73
2022/05/01 07:17:33;;;;;;;22.77;11.75;;;10.20;99.90;;;;;;5035393;28;20049;-73
2022/05/01 07:19:59;;;;;;;23.85;10.25;;;10.10;99.90;;;;;;5034857;28;20076;-74
2022/05/01 07:22:25;;;;;;;19.42;10.30;;;10.30;99.90;;;;;;5051891;28;20053;-74
2022/05/01 07:24:54;;;;;;;21.25;10.18;;;10.20;99.90;;;;;;5051337;28;20045;-74
2022/05/01 07:27:20;;;;;;;22.55;10.68;;;10.50;99.90;;;;;;5051888;28;20056;-74
2022/05/01 07:29:45;;;;;;;20.33;9.90;;;10.70;99.90;;;;;;5052486;28;20053;-73
2022/05/01 07:32:11;;;;;;;23.77;10.50;;;10.80;99.90;;;;;;5053132;28;20045;-74
2022/05/01 07:34:37;;;;;;;19.60;9.68;;;11.00;99.90;;;;;;5052791;28;20048;-74
2022/05/01 07:37:04;;;;;;;18.88;9.90;;;11.10;99.90;;;;;;5035378;28;20053;-73
2022/05/01 07:39:30;;;;;;;21.30;9.07;;;11.30;99.90;;;;;;5052788;28;20049;-74
2022/05/01 07:41:56;;;;;;;20.42;9.65;;;11.40;99.90;;;;;;5053843;28;20068;-75
2022/05/01 07:44:22;;;;;;;20.30;9.73;;;11.50;99.90;;;;;;5035856;28;20052;-75
2022/05/01 07:46:48;;;;;;;20.23;9.15;;;11.60;99.90;;;;;;5052547;28;20044;-74
2022/05/01 07:49:14;;;;;;;19.67;10.15;;;11.70;99.90;;;;;;5034826;28;20057;-75
2022/05/01 07:51:40;;;;;;;20.08;9.98;;;11.50;99.90;;;;;;5053012;28;20098;-73
2022/05/01 07:54:06;;;;;;;21.10;10.48;;;11.40;99.90;;;;;;5052761;28;20071;-74
2022/05/01 07:56:33;;;;;;;20.17;9.73;;;10.90;99.90;;;;;;5018644;28;20049;-73
2022/05/01 07:58:59;;;;;;;18.40;8.48;;;11.40;99.90;;;;;;5034498;28;20128;-74
2022/05/01 08:01:26;;;;;;;19.23;8.35;;;11.40;99.90;;;;;;5051385;28;20045;-74
2022/05/01 08:06:37;;;;;;;18.02;8.60;;;11.80;99.90;;;;;;5054251;28;20045;-73
2022/05/01 08:09:03;;;;;;;19.83;9.45;;;12.10;99.90;;;;;;5056075;28;20049;-75
2022/05/01 08:11:29;;;;;;;17.88;9.20;;;12.00;99.90;;;;;;5038442;28;20055;-75
2022/05/01 08:13:55;;;;;;;17.80;8.68;;;12.30;99.90;;;;;;5037939;28;20069;-74
2022/05/01 08:16:21;;;;;;;15.57;8.32;;;12.40;99.90;;;;;;5055071;28;20426;-74
2022/05/01 08:21:32;;;;;;;18.73;9.45;;;12.50;99.90;;;;;;5056271;28;20059;-76
2022/05/01 08:24:01;;;;;;;21.15;9.27;;;11.70;99.90;;;;;;5056444;28;20381;-73
2022/05/01 08:26:27;;;;;;;18.95;8.95;;;12.20;99.90;;;;;;5022151;28;20159;-77
2022/05/01 08:28:54;;;;;;;17.00;9.70;;;12.40;99.90;;;;;;5056237;28;20041;-73
2022/05/01 08:31:24;;;;;;;20.73;9.75;;;12.30;99.90;;;;;;5022269;28;20052;-74
2022/05/01 08:33:50;;;;;;;15.48;8.77;;;12.40;99.90;;;;;;5055852;28;20128;-73
2022/05/01 08:36:16;;;;;;;18.67;9.15;;;12.40;99.90;;;;;;5057310;28;20071;-76
2022/05/01 08:38:42;;;;;;;23.73;11.30;;;12.70;99.90;;;;;;5041047;28;20394;-73
2022/05/01 08:41:09;;;;;;;18.80;9.75;;;12.80;99.90;;;;;;5057075;28;20056;-74
2022/05/01 08:43:36;;;;;;;20.73;10.00;;;12.60;99.90;;;;;;5054931;28;20051;-73
2022/05/01 08:46:20;;;;;;;29.92;16.58;;;12.80;99.90;;;;;;5072920;28;20053;-73
2022/05/01 08:49:06;;;;;;;19.88;8.85;;;12.90;99.90;;;;;;5039387;28;20059;-72
2022/05/01 08:51:32;;;;;;;20.65;9.60;;;13.00;99.90;;;;;;5038180;28;20164;-75
2022/05/01 08:54:00;;;;;;;22.15;9.00;;;12.60;99.90;;;;;;5054119;28;20045;-75
2022/05/01 08:56:26;;;;;;;18.90;9.18;;;12.80;99.90;;;;;;5055107;28;20056;-73
2022/05/01 08:58:53;;;;;;;17.83;9.50;;;13.00;99.90;;;;;;5038662;28;20533;-74
2022/05/01 09:01:19;;;;;;;17.73;9.02;;;13.00;99.90;;;;;;5054171;28;20048;-74
2022/05/01 09:03:45;;;;;;;17.20;8.93;;;13.10;99.90;;;;;;5053948;28;20048;-74
2022/05/01 09:06:12;;;;;;;19.08;8.45;;;13.30;99.90;;;;;;5055709;28;20037;-73
2022/05/01 09:08:39;;;;;;;22.17;8.80;;;13.00;99.90;;;;;;5054255;28;20052;-74
2022/05/01 09:13:51;;;;;;;19.90;9.85;;;12.50;99.90;;;;;;5055528;28;20065;-72
2022/05/01 09:16:17;;;;;;;17.75;8.90;;;12.40;99.90;;;;;;5054730;28;20088;-72
2022/05/01 09:18:47;;;;;;;21.90;9.38;;;12.70;99.90;;;;;;5054440;28;20076;-74
2022/05/01 09:21:13;;;;;;;20.10;9.73;;;12.50;99.90;;;;;;5054740;28;20068;-74
2022/05/01 09:23:39;;;;;;;18.42;8.40;;;12.50;99.90;;;;;;5071031;28;20041;-74
2022/05/01 09:26:06;;;;;;;22.20;9.40;;;12.80;99.90;;;;;;5055041;28;20053;-73
2022/05/01 09:28:33;;;;;;;17.75;9.40;;;13.00;99.90;;;;;;5053604;28;20083;-73
2022/05/01 09:30:59;;;;;;;20.73;9.63;;;13.10;99.90;;;;;;5038182;28;20056;-72
2022/05/01 09:33:25;;;;;;;20.92;8.90;;;13.20;99.90;;;;;;5053300;28;20488;-73
2022/05/01 09:35:52;;;;;;;17.83;8.88;;;12.90;99.90;;;;;;5054267;28;20056;-74
2022/05/01 09:38:23;;;;;;;19.23;8.10;;;12.80;99.90;;;;;;5054070;28;20048;-73
2022/05/01 09:40:57;;;;;;;16.17;7.93;;;13.10;99.90;;;;;;5037548;28;20113;-73
2022/05/01 09:43:43;;;;;;;16.60;8.18;;;12.90;99.90;;;;;;5053751;28;20195;-74
2022/05/01 09:46:33;;;;;;;16.35;8.00;;;13.00;99.90;;;;;;5054655;28;20389;-73
2022/05/01 09:49:07;;;;;;;18.50;7.60;;;12.80;99.90;;;;;;5054808;28;20045;-74
2022/05/01 09:51:35;;;;;;;14.27;7.85;;;13.10;99.90;;;;;;5055793;28;20175;-74
2022/05/01 09:54:06;;;;;;;16.10;8.10;;;13.00;99.90;;;;;;5055458;28;20102;-72
2022/05/01 09:56:52;;;;;;;16.02;7.18;;;13.10;99.90;;;;;;5054407;28;20056;-74
2022/05/01 09:59:20;;;;;;;14.05;7.40;;;13.10;99.90;;;;;;5054716;28;20065;-74
2022/05/01 10:02:01;;;;;;;15.45;7.45;;;13.30;99.90;;;;;;5056441;28;20175;-74
2022/05/01 10:04:28;;;;;;;14.00;6.70;;;13.00;99.90;;;;;;5056585;28;20323;-74
2022/05/01 10:06:55;;;;;;;12.40;6.85;;;12.70;99.90;;;;;;5056338;28;20048;-76
2022/05/01 10:09:24;;;;;;;15.07;7.68;;;13.20;99.90;;;;;;5057154;28;20048;-75
2022/05/01 10:11:59;;;;;;;14.77;7.85;;;13.00;99.90;;;;;;5055561;28;20482;-75
2022/05/01 10:14:29;;;;;;;12.40;6.70;;;12.50;99.90;;;;;;5057934;28;20124;-75
2022/05/01 10:16:56;;;;;;;14.93;7.00;;;13.00;99.90;;;;;;5063336;28;20366;-75
2022/05/01 10:19:26;;;;;;;15.25;6.57;;;12.90;99.90;;;;;;5061573;28;20045;-74
2022/05/01 10:21:56;;;;;;;15.80;6.70;;;12.80;99.90;;;;;;5059360;28;20053;-75
2022/05/01 10:24:23;;;;;;;14.27;6.63;;;13.30;99.90;;;;;;5040618;28;20045;-74
2022/05/01 10:26:57;;;;;;;14.82;6.30;;;13.70;99.90;;;;;;5059936;28;20155;-73
2022/05/01 10:33:07;;;;;;;;;;;14.40;99.90;;;;;;5058475;28;20059;-75
2022/05/01 10:36:10;;;;;;;13.30;6.07;;;13.30;98.50;;;;;;5069316;28;19928;-75
2022/05/01 10:39:00;;;;;;;11.25;5.68;;;13.30;98.70;;;;;;5070675;28;20113;-74
2022/05/01 10:41:27;;;;;;;11.43;5.32;;;13.70;99.80;;;;;;5067729;28;20051;-75
2022/05/01 10:43:57;;;;;;;11.27;5.07;;;13.80;98.00;;;;;;5071491;28;20057;-75
2022/05/01 10:46:22;;;;;;;9.68;5.13;;;14.00;94.30;;;;;;5071841;28;20105;-74
2022/05/01 10:48:49;;;;;;;10.52;4.82;;;14.50;97.00;;;;;;5072090;28;20049;-75
2022/05/01 10:51:30;;;;;;;14.03;6.67;;;14.90;96.80;;;;;;5070246;28;20094;-75
2022/05/01 10:54:19;;;;;;;12.48;7.75;;;15.20;95.80;;;;;;5068294;28;20311;-73
2022/05/01 10:56:51;;;;;;;11.55;4.80;;;15.50;95.40;;;;;;5062004;28;20079;-74
2022/05/01 10:59:34;;;;;;;11.77;5.03;;;15.60;94.70;;;;;;5027284;28;20056;-73
2022/05/01 11:02:06;;;;;;;11.18;5.55;;;15.50;93.00;;;;;;5058042;28;20049;-73
2022/05/01 11:04:41;;;;;;;9.25;4.60;;;15.30;90.30;;;;;;5057572;28;20045;-75
2022/05/01 11:07:11;;;;;;;9.40;4.15;;;14.90;84.90;;;;;;5040154;28;20156;-74
2022/05/01 11:09:37;;;;;;;11.32;4.00;;;15.00;89.60;;;;;;5057368;28;20127;-73
2022/05/01 11:12:07;;;;;;;10.27;4.10;;;14.50;81.60;;;;;;5057715;28;20049;-73
2022/05/01 11:14:42;;;;;;;7.63;3.50;;;14.40;80.10;;;;;;5057575;28;20080;-72
2022/05/01 11:17:12;;;;;;;7.32;3.00;;;15.10;86.90;;;;;;5060114;28;20045;-73
2022/05/01 11:19:45;;;;;;;9.57;3.60;;;15.10;82.50;;;;;;5060942;28;20044;-73
2022/05/01 11:22:14;;;;;;;10.52;3.83;;;15.00;77.50;;;;;;5057229;28;20115;-77
2022/05/01 11:24:42;;;;;;;7.88;3.75;;;15.10;77.30;;;;;;5058224;28;20102;-73
2022/05/01 11:27:16;;;;;;;5.93;3.25;;;14.30;78.60;;;;;;5056141;28;20114;-75
2022/05/01 11:30:07;;;;;;;6.38;3.25;;;14.30;77.80;;;;;;5054383;28;20114;-76
2022/05/01 11:32:46;;;;;;;7.55;2.90;;;14.50;77.90;;;;;;5053401;28;20048;-75
2022/05/01 11:35:12;;;;;;;6.82;3.20;;;14.30;78.80;;;;;;5053222;28;20080;-76
2022/05/01 11:38:05;;;;;;;8.60;3.47;;;14.50;80.30;;;;;;5053577;28;20047;-75
2022/05/01 11:40:32;;;;;;;8.70;3.10;;;14.50;78.30;;;;;;5055379;28;20049;-75
2022/05/01 11:43:15;;;;;;;7.90;3.50;;;14.50;78.80;;;;;;5058396;28;20123;-75
2022/05/01 11:45:42;;;;;;;7.28;3.60;;;14.70;82.00;;;;;;5091970;28;20056;-76
2022/05/01 11:48:16;;;;;;;7.82;3.42;;;14.80;83.10;;;;;;5024449;28;20057;-74
2022/05/01 11:50:43;;;;;;;6.20;3.30;;;14.80;79.90;;;;;;5058334;28;20052;-75
2022/05/01 11:53:25;;;;;;;7.63;4.03;;;14.90;81.90;;;;;;5043003;28;20037;-76
2022/05/01 12:04:26;;;;;;;8.50;3.80;;;14.60;80.00;;;;;;5064124;28;20188;-76
2022/05/01 12:07:20;;;;;;;9.05;4.03;;;15.10;81.30;;;;;;5064006;28;20048;-75
2022/05/01 12:09:47;;;;;;;8.73;4.22;;;15.00;80.60;;;;;;5062702;28;20053;-75
2022/05/01 12:12:16;;;;;;;8.20;3.72;;;15.00;79.20;;;;;;5061344;28;20515;-77
2022/05/01 12:14:43;;;;;;;8.95;4.10;;;15.40;81.20;;;;;;5060393;28;20090;-78
2022/05/01 12:17:16;;;;;;;7.90;3.65;;;15.30;79.50;;;;;;5043476;28;20056;-75
2022/05/01 12:19:43;;;;;;;8.20;3.80;;;15.00;76.90;;;;;;5059190;28;20061;-75
2022/05/01 12:22:12;;;;;;;8.88;4.03;;;15.50;78.40;;;;;;5062910;28;20068;-76
2022/05/01 12:24:39;;;;;;;7.85;4.38;;;15.60;79.20;;;;;;5061969;28;20056;-75
2022/05/01 12:27:06;;;;;;;7.78;3.92;;;15.60;76.50;;;;;;5045350;28;20059;-76
2022/05/01 12:29:33;;;;;;;9.85;4.35;;;15.40;74.40;;;;;;5060706;28;20048;-76
2022/05/01 12:32:00;;;;;;;;;;;15.50;76.70;;;;;;5043537;28;20494;-75
2022/05/01 12:34:27;;;;;;;10.48;4.30;;;15.30;75.20;;;;;;5076633;28;19925;-76
2022/05/01 12:37:16;;;;;;;8.05;4.05;;;15.90;77.60;;;;;;5063391;28;20060;-75
2022/05/01 12:39:54;;;;;;;9.10;4.20;;;15.80;76.00;;;;;;5061694;28;20071;-75
2022/05/01 12:45:09;;;;;;;8.63;4.32;;;16.30;72.90;;;;;;5061865;28;20053;-75
2022/05/01 12:47:37;;;;;;;7.85;4.10;;;16.10;70.20;;;;;;5059979;28;20099;-75
2022/05/01 12:50:06;;;;;;;9.13;3.63;;;15.60;71.40;;;;;;5059537;28;20043;-76
2022/05/01 12:52:33;;;;;;;8.60;3.95;;;16.30;74.00;;;;;;5061243;28;20060;-75
2022/05/01 12:55:14;;;;;;;8.75;4.20;;;16.00;69.50;;;;;;5045241;28;20049;-76
2022/05/01 12:57:41;;;;;;;9.45;3.83;;;16.00;71.70;;;;;;5063798;28;20052;-77
2022/05/01 13:00:08;;;;;;;10.43;4.43;;;16.20;73.80;;;;;;5064155;28;20052;-76
2022/05/01 13:02:34;;;;;;;16.95;7.55;;;16.50;74.40;;;;;;5063722;28;20059;-76
2022/05/01 13:05:04;;;;;;;11.30;4.72;;;16.70;74.90;;;;;;5063976;28;20392;-74
2022/05/01 13:07:36;;;;;;;8.75;3.70;;;16.80;74.70;;;;;;5062865;28;20061;-75
2022/05/01 13:10:03;;;;;;;8.80;3.80;;;16.70;72.20;;;;;;5046256;28;20049;-77
2022/05/01 13:12:34;;;;;;;8.63;3.50;;;16.70;71.30;;;;;;5063629;28;20060;-76
2022/05/01 13:15:04;;;;;;;7.72;3.90;;;17.00;72.50;;;;;;5066004;28;20064;-76
2022/05/01 13:17:31;;;;;;;9.38;4.22;;;17.00;70.80;;;;;;5044799;28;20370;-75
2022/05/01 13:19:58;;;;;;;;;;;16.80;66.40;;;;;;5063210;28;20119;-75
2022/05/01 13:22:24;;;;;;;13.50;4.45;;;16.20;65.70;;;;;;5063218;28;19928;-76
2022/05/01 13:24:52;;;;;;;7.60;3.85;;;16.00;66.80;;;;;;5094905;28;20427;-75